»·PEaware :: N458SP 1L1-2O7

N458SP :: 1L1-2O7

FLIGHT INFORMATION

Flight Status: Arrived
Operator: Privately registered:
United States
More flights under this callsign
Pilot: John L. (25522)
Aircraft: BOEING 737-800
(B738)
More flights by this aircraft type
Origin: 1L1 Lincoln Co
United States
Destination: 2O7 Independence
United States
More flights between these airports :: More routes between these airports
Route: +MMM V394 LAS V105 HIDEN V135 BTY O26
File this flight plan on PilotEdge
Remarks:
Altitude:
(Current/Filed)
28,000ft
Speed:
(Current/Filed)
340kts
Departed: 08-Apr-20 02:27 PM
Arrived: 08-Apr-20 03:26 PM
Distance/Time
Traveled:
188nm/0:59
Distance/Time
To Go:
Arrived

Flight Plot

Page will automatically refresh every two minutes.

Flight plan parsing failed; only flown route is shown


Map Options




Map Legend


Flown Route
Filed Route
Departure Airport
Arrival Airport
Navaid (VOR, NDB)
Fix

Horizontal Profiles

Position Reports

Time Latitude Longitude Heading Altitude Ground
Speed
08-Apr-20 14:12 37.793438 -114.420574 181 4843ft 0kts
08-Apr-20 14:13 37.793438 -114.420574 181 4843ft 0kts
08-Apr-20 14:14 37.793438 -114.420574 181 4843ft 0kts
08-Apr-20 14:15 37.793438 -114.420574 181 4843ft 0kts
08-Apr-20 14:16 37.793438 -114.420574 181 4843ft 0kts
08-Apr-20 14:17 37.793438 -114.420574 181 4843ft 0kts
08-Apr-20 14:18 37.793438 -114.420574 181 4843ft 0kts
08-Apr-20 14:19 37.793438 -114.420574 182 4843ft 0kts
08-Apr-20 14:20 37.793438 -114.420574 181 4843ft 0kts
08-Apr-20 14:21 37.793438 -114.420574 181 4843ft 0kts
08-Apr-20 14:22 37.793438 -114.420574 182 4843ft 0kts
08-Apr-20 14:23 37.793438 -114.420574 181 4843ft 0kts
08-Apr-20 14:24 37.793438 -114.420574 181 4843ft 0kts
08-Apr-20 14:25 37.793438 -114.420574 181 4843ft 0kts
08-Apr-20 14:26 37.791502 -114.420675 182 4833ft 68kts
08-Apr-20 14:27 37.748778 -114.415599 181 6565ft 203kts
08-Apr-20 14:28 37.696971 -114.409874 168 11154ft 172kts
08-Apr-20 14:29 37.645659 -114.402196 164 14270ft 179kts
08-Apr-20 14:30 37.589206 -114.393149 165 17327ft 188kts
08-Apr-20 14:31 37.535227 -114.385828 170 19627ft 211kts
08-Apr-20 14:32 37.474094 -114.375803 166 21761ft 238kts
08-Apr-20 14:33 37.407307 -114.365931 173 24280ft 247kts
08-Apr-20 14:34 37.339235 -114.357086 172 26944ft 238kts
08-Apr-20 14:35 37.265761 -114.350487 172 27829ft 288kts
08-Apr-20 14:36 37.177425 -114.338170 173 28035ft 349kts
08-Apr-20 14:37 37.074869 -114.323524 173 28050ft 392kts
08-Apr-20 14:38 36.962758 -114.304687 173 27958ft 403kts
08-Apr-20 14:39 36.852356 -114.288556 180 27960ft 397kts
08-Apr-20 14:40 36.744274 -114.318952 198 27963ft 399kts
08-Apr-20 14:41 36.652726 -114.400342 221 27948ft 417kts
08-Apr-20 14:42 36.579775 -114.513559 221 27953ft 414kts
08-Apr-20 14:43 36.500543 -114.617462 219 27946ft 411kts
08-Apr-20 14:44 36.420790 -114.720068 218 27941ft 410kts
08-Apr-20 14:45 36.341597 -114.823140 219 27942ft 410kts
08-Apr-20 14:46 36.263701 -114.927432 220 27943ft 409kts
08-Apr-20 14:47 36.185840 -115.031617 220 27930ft 410kts
08-Apr-20 14:48 36.112333 -115.142025 233 27938ft 425kts
08-Apr-20 14:49 36.078340 -115.285610 260 27953ft 451kts
08-Apr-20 14:50 36.080661 -115.443424 273 27945ft 466kts
08-Apr-20 14:51 36.123294 -115.598866 289 27927ft 481kts
08-Apr-20 14:52 36.168140 -115.755147 284 27904ft 481kts
08-Apr-20 14:53 36.211981 -115.913583 284 27904ft 484kts
08-Apr-20 14:54 36.255914 -116.072490 284 27914ft 495kts
08-Apr-20 14:55 36.301311 -116.237924 284 27974ft 512kts
08-Apr-20 14:56 36.347252 -116.405726 284 27909ft 507kts
08-Apr-20 14:57 36.392261 -116.568602 284 27903ft 493kts
08-Apr-20 14:58 36.437000 -116.729414 284 27943ft 487kts
08-Apr-20 14:59 36.480554 -116.887976 282 28037ft 479kts
08-Apr-20 15:00 36.517644 -117.047509 282 28020ft 464kts
08-Apr-20 15:01 36.551880 -117.195718 287 26448ft 433kts
08-Apr-20 15:02 36.589327 -117.336100 287 23920ft 423kts
08-Apr-20 15:03 36.624921 -117.474542 288 21321ft 414kts
08-Apr-20 15:04 36.658413 -117.610942 288 18730ft 407kts
08-Apr-20 15:05 36.691163 -117.743859 289 16972ft 374kts
08-Apr-20 15:06 36.707975 -117.860856 263 16925ft 311kts
08-Apr-20 15:07 36.698348 -117.960582 263 16965ft 272kts
08-Apr-20 15:08 36.696765 -118.053797 289 15878ft 271kts
08-Apr-20 15:09 36.734329 -118.132317 316 14948ft 250kts
08-Apr-20 15:10 36.775340 -118.191775 318 14888ft 198kts
08-Apr-20 15:11 36.818809 -118.235656 12 14370ft 187kts
08-Apr-20 15:12 36.839428 -118.192713 103 14362ft 151kts
08-Apr-20 15:13 36.800582 -118.163167 155 15099ft 179kts
08-Apr-20 15:14 36.746711 -118.170085 198 15507ft 203kts
08-Apr-20 15:15 36.721643 -118.152219 24 13307ft 207kts
08-Apr-20 15:16 36.776400 -118.196433 352 10623ft 229kts
08-Apr-20 15:17 36.821480 -118.202261 6 8306ft 255kts
08-Apr-20 15:18 36.887839 -118.197559 4 5995ft 229kts
08-Apr-20 15:19 36.943503 -118.206389 344 5119ft 184kts
08-Apr-20 15:20 36.972700 -118.245842 249 5242ft 167kts
08-Apr-20 15:21 36.934859 -118.264525 165 5390ft 155kts
08-Apr-20 15:22 36.895805 -118.245913 163 4647ft 145kts
08-Apr-20 15:23 36.857966 -118.231912 145 4424ft 138kts
08-Apr-20 15:24 36.825002 -118.209404 156 3959ft 128kts
08-Apr-20 15:25 36.814177 -118.203805 157 3903ft 0kts
08-Apr-20 15:26 36.814177 -118.203805 157 3903ft 0kts
08-Apr-20 15:27 36.814177 -118.203805 157 3903ft 0kts
08-Apr-20 15:28 36.814177 -118.203805 157 3903ft 0kts
08-Apr-20 15:29 36.814177 -118.203805 157 3903ft 0kts
08-Apr-20 15:30 36.813712 -118.203566 157 3903ft 15kts
08-Apr-20 15:32 36.809852 -118.202963 243 3909ft 0kts
08-Apr-20 15:33 36.814177 -118.203805 157 3903ft 0kts
08-Apr-20 15:34 36.825845 -118.209823 157 3973ft 129kts
08-Apr-20 15:35 36.904593 -118.248756 162 4772ft 149kts
08-Apr-20 15:36 36.972686 -118.245904 248 5243ft 167kts
08-Apr-20 15:37 36.720444 -118.152979 31 13400ft 202kts
08-Apr-20 15:38 36.738153 -118.175692 201 15248ft 207kts
08-Apr-20 15:39 36.768366 -118.161369 184 15500ft 206kts
08-Apr-20 15:40 36.794534 -118.161235 158 15177ft 184kts

Navigation Log

Ident Type
Flight plan parsing failed, navigation log unavailable